Time;durP1;ratioP1;P1;durP2;ratioP2;P2;SDS_P1;SDS_P2;PMS_P1;PMS_P2;Temp;Humidity;BMP_temperature;BMP_pressure;BME280_temperature;BME280_humidity;BME280_pressure;Samples;Min_cycle;Max_cycle;Signal;HPM_P1;HPM_P2
2023/03/03 00:01:27;;;;;;;50.90;24.63;;;3.10;99.90;;;;;;4983145;28;20027;-74
2023/03/03 00:03:53;;;;;;;50.45;24.50;;;3.00;99.90;;;;;;4984076;28;20047;-72
2023/03/03 00:06:19;;;;;;;51.50;25.05;;;3.00;99.90;;;;;;4982730;28;20035;-73
2023/03/03 00:08:45;;;;;;;50.58;25.02;;;2.90;99.90;;;;;;4983809;28;20316;-72
2023/03/03 00:11:11;;;;;;;52.83;26.85;;;2.80;99.90;;;;;;4983354;28;20046;-72
2023/03/03 00:13:44;;;;;;;48.20;24.10;;;2.70;99.90;;;;;;4980869;28;20030;-71
2023/03/03 00:16:23;;;;;;;50.75;25.00;;;2.60;99.90;;;;;;4980628;28;20414;-72
2023/03/03 00:18:50;;;;;;;50.67;25.10;;;2.50;99.90;;;;;;4982154;28;20047;-73
2023/03/03 00:21:27;;;;;;;54.13;25.13;;;2.50;99.90;;;;;;4982598;28;20050;-73
2023/03/03 00:23:57;;;;;;;58.72;26.35;;;2.40;99.90;;;;;;4983520;28;20038;-72
2023/03/03 00:26:37;;;;;;;51.35;26.35;;;2.40;99.90;;;;;;4978630;28;20359;-74
2023/03/03 00:29:25;;;;;;;52.25;23.85;;;2.30;99.90;;;;;;4962924;28;20220;-72
2023/03/03 06:01:34;;;;;;;54.92;26.50;;;3.70;99.90;;;;;;5993292;23;20030;31
2023/03/03 06:04:00;;;;;;;53.85;26.15;;;3.60;99.90;;;;;;4921475;29;20055;-70
2023/03/03 06:06:27;;;;;;;52.28;25.33;;;3.60;99.90;;;;;;4923616;29;20304;-70
2023/03/03 06:08:53;;;;;;;51.70;25.30;;;3.50;99.90;;;;;;4923658;29;20039;-70
2023/03/03 06:11:19;;;;;;;48.90;24.15;;;3.40;99.90;;;;;;4926829;29;20043;-70
2023/03/03 06:13:44;;;;;;;50.60;25.05;;;3.40;99.90;;;;;;4916888;29;20028;-71
2023/03/03 06:16:10;;;;;;;53.97;27.20;;;3.40;99.90;;;;;;4923967;29;20032;-71
2023/03/03 06:18:36;;;;;;;47.13;24.10;;;3.40;99.90;;;;;;4912311;29;20091;-72
2023/03/03 06:21:02;;;;;;;44.78;22.60;;;3.30;99.90;;;;;;4924276;29;20047;-71
2023/03/03 06:23:28;;;;;;;50.03;24.05;;;3.20;99.90;;;;;;4923263;29;20043;-73
2023/03/03 06:25:53;;;;;;;44.80;21.50;;;3.20;99.90;;;;;;4924364;29;20054;-71
2023/03/03 06:28:19;;;;;;;44.83;21.73;;;3.20;99.90;;;;;;4923422;29;20072;-71
2023/03/03 06:30:45;;;;;;;42.40;21.35;;;3.20;99.90;;;;;;4923893;29;20032;-71
2023/03/03 06:33:10;;;;;;;40.58;20.35;;;3.20;99.90;;;;;;4924811;29;20309;-70
2023/03/03 06:35:36;;;;;;;45.85;21.50;;;3.20;99.90;;;;;;4922966;29;20020;-72
2023/03/03 06:38:02;;;;;;;41.38;21.40;;;3.20;99.90;;;;;;4924216;29;20020;-72
2023/03/03 06:40:28;;;;;;;37.38;20.05;;;3.20;99.90;;;;;;4923178;29;20141;-71
2023/03/03 06:42:54;;;;;;;38.03;19.85;;;3.20;99.90;;;;;;4924049;29;20036;-71
2023/03/03 06:45:19;;;;;;;37.10;20.45;;;3.20;99.90;;;;;;4923425;29;20278;-72
2023/03/03 06:47:45;;;;;;;41.75;20.70;;;3.30;99.90;;;;;;4924232;29;20091;-71
2023/03/03 06:50:11;;;;;;;40.42;19.60;;;3.30;99.90;;;;;;4924026;29;20028;-72
2023/03/03 06:52:37;;;;;;;37.75;20.85;;;3.40;99.90;;;;;;4923563;29;20040;-71
2023/03/03 06:55:17;;;;;;;40.45;20.38;;;3.40;99.90;;;;;;4923768;29;20043;-71
2023/03/03 06:57:42;;;;;;;38.88;20.08;;;3.50;99.90;;;;;;4922355;29;20087;-70
2023/03/03 07:00:24;;;;;;;38.20;19.83;;;3.50;99.90;;;;;;4921793;29;20051;-71
2023/03/03 07:02:58;;;;;;;38.72;21.05;;;3.60;99.90;;;;;;4889763;29;20079;-71
2023/03/03 07:05:27;;;;;;;37.30;20.77;;;3.70;99.90;;;;;;4889094;29;20041;-71
2023/03/03 07:07:55;;;;;;;38.13;19.63;;;3.70;99.90;;;;;;4889473;29;20043;-70
2023/03/03 07:10:26;;;;;;;39.50;19.20;;;3.80;99.90;;;;;;4889087;29;20036;-72
2023/03/03 07:12:52;;;;;;;40.15;20.40;;;3.80;99.90;;;;;;4889716;29;20059;-70
2023/03/03 07:15:27;;;;;;;41.95;20.58;;;3.90;99.90;;;;;;4891379;29;20274;-72
2023/03/03 07:17:59;;;;;;;37.50;19.98;;;4.00;99.90;;;;;;4904110;29;20055;-72
2023/03/03 07:20:34;;;;;;;38.70;20.35;;;4.00;99.90;;;;;;4888918;29;20246;-72
2023/03/03 07:23:01;;;;;;;41.03;20.83;;;4.00;99.90;;;;;;4888993;29;20142;-72
2023/03/03 07:25:36;;;;;;;38.53;18.77;;;4.10;99.90;;;;;;4886553;29;20104;-71
2023/03/03 07:28:23;;;;;;;37.55;19.70;;;4.20;99.90;;;;;;4889297;29;20067;-71
2023/03/03 07:30:48;;;;;;;37.50;19.80;;;4.30;99.90;;;;;;4888941;29;20045;-73
2023/03/03 07:33:26;;;;;;;36.63;19.23;;;4.30;99.90;;;;;;4888947;29;20333;-70
2023/03/03 07:36:00;;;;;;;39.00;20.27;;;4.40;99.90;;;;;;4888502;29;20048;-72
2023/03/03 07:38:48;;;;;;;39.08;19.00;;;4.50;99.60;;;;;;4887433;29;20240;-71
2023/03/03 07:41:19;;;;;;;37.08;19.70;;;4.50;99.20;;;;;;4888581;29;20037;-72
2023/03/03 07:43:56;;;;;;;33.97;18.42;;;4.70;98.80;;;;;;4888719;29;20117;-72
2023/03/03 07:46:43;;;;;;;37.05;19.65;;;4.80;98.10;;;;;;4888356;29;20346;-73
2023/03/03 07:49:32;;;;;;;34.22;19.73;;;4.80;98.40;;;;;;4883810;29;20044;-73
2023/03/03 07:51:59;;;;;;;40.97;21.00;;;4.90;98.30;;;;;;4888744;29;20037;-71
2023/03/03 07:54:33;;;;;;;37.92;20.48;;;5.00;98.20;;;;;;4887386;29;20044;-72
2023/03/03 07:57:21;;;;;;;40.20;19.90;;;5.10;97.90;;;;;;4887823;29;20033;-71
2023/03/03 07:59:49;;;;;;;37.40;20.70;;;5.30;97.80;;;;;;4888806;29;20033;-71
2023/03/03 08:02:27;;;;;;;;;;;5.50;97.10;;;;;;4895766;29;20060;-72
2023/03/03 08:04:53;;;;;;;38.88;21.48;;;5.60;96.80;;;;;;4907235;29;19911;-70
2023/03/03 08:07:21;;;;;;;36.58;20.48;;;5.60;96.70;;;;;;4906428;29;20075;-71
2023/03/03 08:09:50;;;;;;;39.58;20.15;;;5.60;96.70;;;;;;4907133;29;20028;-72
2023/03/03 08:12:32;;;;;;;40.83;20.50;;;5.60;96.40;;;;;;4906564;29;20033;-72
2023/03/03 08:15:14;;;;;;;33.05;19.05;;;5.70;95.80;;;;;;4911964;29;20055;-73
2023/03/03 08:17:42;;;;;;;34.08;18.88;;;6.00;95.80;;;;;;4903536;29;20051;-73
2023/03/03 08:20:44;;;;;;;;;;;6.30;94.80;;;;;;4910835;29;20036;-75
2023/03/03 08:23:11;;;;;;;37.65;19.25;;;6.40;94.40;;;;;;4849428;29;19912;-74
2023/03/03 08:25:37;;;;;;;37.28;19.88;;;6.50;93.80;;;;;;4897653;29;20052;-75
2023/03/03 08:28:04;;;;;;;36.25;19.80;;;6.50;93.60;;;;;;4908203;29;20026;-73
2023/03/03 08:30:30;;;;;;;36.78;20.48;;;6.50;93.90;;;;;;4907318;29;20040;-73
2023/03/03 08:32:57;;;;;;;36.20;19.02;;;6.50;93.60;;;;;;4907006;29;20033;-74
2023/03/03 08:35:22;;;;;;;34.05;19.58;;;6.30;93.40;;;;;;4902757;29;20056;-74
2023/03/03 08:37:48;;;;;;;39.20;19.85;;;6.10;93.70;;;;;;4906600;29;20314;-74
2023/03/03 08:40:14;;;;;;;38.80;19.55;;;6.00;93.80;;;;;;4906407;29;20044;-73
2023/03/03 08:42:40;;;;;;;40.00;20.52;;;6.00;94.20;;;;;;4906003;29;20028;-72
2023/03/03 08:45:06;;;;;;;38.92;20.60;;;6.10;94.30;;;;;;4920629;29;20044;-72
2023/03/03 08:47:32;;;;;;;39.47;19.65;;;6.00;94.10;;;;;;4894857;29;20048;-74
2023/03/03 08:49:58;;;;;;;32.50;18.67;;;6.20;94.40;;;;;;4906240;29;20044;-72
2023/03/03 08:52:23;;;;;;;37.30;19.85;;;6.10;94.20;;;;;;4905978;29;20075;-74
2023/03/03 08:54:49;;;;;;;37.97;20.00;;;6.10;94.10;;;;;;4906720;29;20032;-74
2023/03/03 08:57:15;;;;;;;34.47;19.80;;;6.20;94.10;;;;;;4896067;29;20067;-74
2023/03/03 08:59:41;;;;;;;35.97;19.70;;;6.30;94.20;;;;;;4906390;29;20024;-75
2023/03/03 09:02:07;;;;;;;36.53;20.90;;;6.30;94.10;;;;;;4906250;29;20052;-73
2023/03/03 09:04:33;;;;;;;38.55;21.05;;;6.30;94.00;;;;;;4905790;29;20055;-73
2023/03/03 09:06:58;;;;;;;37.30;19.67;;;6.40;93.80;;;;;;4906071;29;20044;-73
2023/03/03 09:09:24;;;;;;;33.10;19.52;;;6.50;94.00;;;;;;4905760;29;20016;-70
2023/03/03 09:11:57;;;;;;;34.30;18.85;;;6.40;94.00;;;;;;4892910;29;20024;-72
2023/03/03 09:14:27;;;;;;;38.05;20.40;;;6.40;94.00;;;;;;4908993;29;20054;-73
2023/03/03 09:16:54;;;;;;;34.88;19.70;;;6.30;93.80;;;;;;4905410;29;20048;-72
2023/03/03 09:19:26;;;;;;;36.70;20.90;;;6.40;94.00;;;;;;4905366;29;20183;-74
2023/03/03 09:21:53;;;;;;;35.28;19.17;;;6.40;93.50;;;;;;4905909;29;20091;-73
2023/03/03 09:24:30;;;;;;;36.33;19.87;;;6.40;93.90;;;;;;4904771;29;20036;-73
2023/03/03 09:26:57;;;;;;;38.10;20.70;;;6.60;93.70;;;;;;4905622;29;20337;-72
2023/03/03 09:29:50;;;;;;;34.75;19.30;;;7.10;93.10;;;;;;4908255;29;20389;-74
2023/03/03 09:32:25;;;;;;;31.92;18.80;;;7.40;92.40;;;;;;4874322;29;20100;-74
2023/03/03 09:34:51;;;;;;;32.35;19.25;;;7.80;91.60;;;;;;4897681;29;20063;-72
2023/03/03 09:37:21;;;;;;;31.95;18.40;;;7.80;91.00;;;;;;4904790;29;20326;-74
2023/03/03 09:39:53;;;;;;;34.33;18.98;;;7.80;90.70;;;;;;4905751;29;20147;-73
2023/03/03 09:42:57;;;;;;;30.85;17.90;;;8.00;90.70;;;;;;4904269;29;20099;-72
2023/03/03 09:45:27;;;;;;;31.33;17.98;;;8.20;90.60;;;;;;4905123;29;20048;-73
2023/03/03 09:48:14;;;;;;;32.38;19.23;;;8.40;90.30;;;;;;4905965;29;20044;-72
2023/03/03 09:51:07;;;;;;;32.35;18.27;;;8.40;89.70;;;;;;4902631;29;20179;-72
2023/03/03 09:53:54;;;;;;;31.25;18.85;;;8.60;90.20;;;;;;4904857;29;20040;-72
2023/03/03 09:56:23;;;;;;;31.02;19.10;;;8.60;89.20;;;;;;4904587;29;20061;-73
2023/03/03 09:59:01;;;;;;;33.63;18.73;;;8.70;89.10;;;;;;4905189;29;20024;-74
2023/03/03 10:01:44;;;;;;;30.85;18.65;;;8.80;89.30;;;;;;4904358;29;20352;-74
2023/03/03 10:04:15;;;;;;;33.97;19.92;;;9.10;87.90;;;;;;4897103;29;20096;-73
2023/03/03 10:07:12;;;;;;;30.33;18.80;;;9.20;88.00;;;;;;4905436;29;20086;-73
2023/03/03 10:09:55;;;;;;;32.20;19.17;;;9.40;87.80;;;;;;4901047;29;20025;-74
2023/03/03 10:12:44;;;;;;;31.50;19.05;;;9.60;87.20;;;;;;4904305;29;20337;-73
2023/03/03 10:15:51;;;;;;;32.58;18.73;;;9.90;86.40;;;;;;4897656;29;20329;-72
2023/03/03 10:18:24;;;;;;;34.75;19.67;;;10.10;85.80;;;;;;4851469;29;20042;-74
2023/03/03 10:21:06;;;;;;;35.22;19.38;;;10.10;84.60;;;;;;4864749;29;20177;-77
2023/03/03 10:24:01;;;;;;;32.00;18.67;;;10.10;84.50;;;;;;4852106;29;20053;-67
2023/03/03 10:26:56;;;;;;;31.42;19.15;;;10.20;83.90;;;;;;4805725;29;20193;-69
2023/03/03 10:29:33;;;;;;;30.98;19.58;;;10.20;83.60;;;;;;4796162;29;20043;-76
2023/03/03 10:32:02;;;;;;;35.03;20.30;;;10.10;83.80;;;;;;4797473;29;20054;-69
2023/03/03 10:34:46;;;;;;;33.00;19.63;;;10.10;84.00;;;;;;4802595;29;20035;-67
2023/03/03 10:37:40;;;;;;;34.35;19.60;;;10.20;84.20;;;;;;4801689;29;20109;-70
2023/03/03 10:40:27;;;;;;;32.97;20.00;;;10.20;85.00;;;;;;4808758;29;20359;-68
2023/03/03 10:43:15;;;;;;;42.10;20.48;;;10.50;83.30;;;;;;4806584;29;20039;-73
2023/03/03 10:45:52;;;;;;;31.98;20.02;;;10.70;82.50;;;;;;4793674;29;20035;-72
2023/03/03 10:48:48;;;;;;;30.88;19.95;;;10.80;81.50;;;;;;4807765;29;20042;-74
2023/03/03 10:51:59;;;;;;;36.05;20.50;;;11.00;80.70;;;;;;4834349;29;20061;-73
2023/03/03 10:54:53;;;;;;;37.47;19.58;;;11.00;80.10;;;;;;4839517;29;20355;-74
2023/03/03 10:57:32;;;;;;;40.88;20.35;;;11.10;81.60;;;;;;4837190;29;20072;-75
2023/03/03 11:00:19;;;;;;;37.17;19.40;;;11.20;79.90;;;;;;4849906;29;20147;-74
2023/03/03 11:03:11;;;;;;;34.15;19.92;;;11.20;79.50;;;;;;4871536;29;20274;-73
2023/03/03 11:05:47;;;;;;;33.35;19.88;;;11.10;80.60;;;;;;4908279;29;20043;-75
2023/03/03 11:08:35;;;;;;;33.50;19.92;;;11.10;80.70;;;;;;4902427;29;20104;-73
2023/03/03 11:11:16;;;;;;;34.55;20.55;;;11.20;80.70;;;;;;4908238;29;20036;-74
2023/03/03 11:13:51;;;;;;;32.88;20.55;;;11.60;79.60;;;;;;4908232;29;20095;-75
2023/03/03 11:16:51;;;;;;;31.75;19.60;;;11.90;78.20;;;;;;4907916;29;20091;-73
2023/03/03 11:19:23;;;;;;;33.92;19.70;;;11.90;77.70;;;;;;4907621;29;20113;-76
2023/03/03 11:22:07;;;;;;;30.65;19.65;;;12.20;77.60;;;;;;4900133;29;20063;-75
2023/03/03 11:24:45;;;;;;;33.05;19.30;;;12.50;77.60;;;;;;4905084;29;20080;-73
2023/03/03 11:27:28;;;;;;;33.15;20.25;;;12.50;77.50;;;;;;4905083;29;20051;-72
2023/03/03 11:30:33;;;;;;;33.53;19.85;;;12.30;77.60;;;;;;4908118;29;20048;-75
2023/03/03 11:33:03;;;;;;;32.88;19.42;;;12.40;76.90;;;;;;4908430;29;20024;-75
2023/03/03 11:36:07;;;;;;;32.63;20.90;;;12.20;76.80;;;;;;4908227;29;20056;-76
2023/03/03 11:38:45;;;;;;;33.85;20.85;;;12.10;77.00;;;;;;4908000;29;20020;-75
2023/03/03 11:41:16;;;;;;;31.40;19.52;;;11.70;77.40;;;;;;4896512;29;20032;-74
2023/03/03 11:44:09;;;;;;;32.40;19.77;;;11.50;77.30;;;;;;4895390;29;20382;-78
2023/03/03 11:46:52;;;;;;;30.40;19.63;;;11.50;76.80;;;;;;4891890;29;20060;-72
2023/03/03 11:49:41;;;;;;;30.60;19.55;;;11.60;77.50;;;;;;4909435;29;20041;-72
2023/03/03 11:52:12;;;;;;;;;;;11.80;76.60;;;;;;4908516;29;20044;-71
2023/03/03 11:55:04;;;;;;;31.63;18.33;;;12.10;76.70;;;;;;4907140;29;19950;-72
2023/03/03 11:57:59;;;;;;;32.42;19.90;;;12.00;75.90;;;;;;4920637;29;20025;-72
2023/03/03 12:00:46;;;;;;;32.13;19.35;;;12.10;76.00;;;;;;4908016;29;20048;-74
2023/03/03 12:03:28;;;;;;;34.73;20.87;;;12.40;75.00;;;;;;4907601;29;20044;-74
2023/03/03 12:06:13;;;;;;;30.27;19.38;;;13.00;73.70;;;;;;4904548;29;20048;-74
2023/03/03 12:09:10;;;;;;;26.05;18.35;;;14.20;71.20;;;;;;4895500;29;20117;-73
2023/03/03 12:11:55;;;;;;;27.87;19.30;;;15.30;70.00;;;;;;4908811;29;20421;-73
2023/03/03 12:14:58;;;;;;;28.27;19.60;;;16.50;66.00;;;;;;4906522;29;20052;-73
2023/03/03 12:17:27;;;;;;;25.23;18.08;;;17.50;64.70;;;;;;4907334;29;20032;-73
2023/03/03 12:20:23;;;;;;;25.60;18.02;;;18.30;61.50;;;;;;4908898;29;20051;-72
2023/03/03 12:22:58;;;;;;;26.70;18.63;;;18.60;60.70;;;;;;4911824;29;20031;-73
2023/03/03 12:25:32;;;;;;;26.85;18.40;;;19.30;59.40;;;;;;4911419;29;20345;-74
2023/03/03 12:28:24;;;;;;;25.98;18.40;;;19.80;58.40;;;;;;4908198;29;20032;-71
2023/03/03 12:31:22;;;;;;;24.50;17.52;;;19.70;57.50;;;;;;4905913;29;20173;-72
2023/03/03 12:33:55;;;;;;;23.35;17.95;;;20.30;56.80;;;;;;4906794;29;20037;-72
2023/03/03 12:36:21;;;;;;;20.63;16.42;;;20.50;56.50;;;;;;4905488;29;20276;-74
2023/03/03 12:38:52;;;;;;;26.42;18.25;;;20.20;57.10;;;;;;4899054;29;20043;-73
2023/03/03 12:41:26;;;;;;;20.92;16.77;;;20.40;55.60;;;;;;4907047;29;20084;-74
2023/03/03 12:44:21;;;;;;;25.40;16.77;;;20.60;55.50;;;;;;4906611;29;20092;-72
2023/03/03 12:47:07;;;;;;;20.48;15.93;;;20.70;54.40;;;;;;4870052;29;20028;-73
2023/03/03 12:50:02;;;;;;;23.98;17.55;;;21.10;54.00;;;;;;4906631;29;20107;-72
2023/03/03 12:52:53;;;;;;;23.15;16.88;;;21.00;54.00;;;;;;4902946;29;20217;-73
2023/03/03 12:55:33;;;;;;;22.63;17.25;;;21.10;54.10;;;;;;4903829;29;20043;-75
2023/03/03 12:58:22;;;;;;;24.65;17.35;;;21.00;53.50;;;;;;4905875;29;20028;-75
2023/03/03 13:01:07;;;;;;;21.77;16.92;;;21.50;54.60;;;;;;4903983;29;20100;-74
2023/03/03 13:03:48;;;;;;;21.05;16.42;;;22.40;52.60;;;;;;4905943;29;20052;-74
2023/03/03 13:06:25;;;;;;;22.23;16.38;;;23.20;51.50;;;;;;4898378;29;20029;-74
2023/03/03 13:09:32;;;;;;;19.67;16.33;;;23.60;50.20;;;;;;4906469;29;20099;-74
2023/03/03 13:12:34;;;;;;;18.00;15.50;;;23.70;50.70;;;;;;4905915;29;20058;-74
2023/03/03 13:15:15;;;;;;;24.20;16.27;;;23.50;50.40;;;;;;4878329;29;20841;-74
2023/03/03 13:18:06;;;;;;;21.85;15.88;;;23.70;49.60;;;;;;4906192;29;20051;-73
2023/03/03 13:20:43;;;;;;;21.30;16.65;;;23.80;50.60;;;;;;4905776;29;20032;-72
2023/03/03 13:23:17;;;;;;;21.13;16.25;;;23.90;51.10;;;;;;4899826;29;20318;-73
2023/03/03 13:25:51;;;;;;;20.95;16.33;;;24.60;48.30;;;;;;4902403;29;20044;-74
2023/03/03 13:28:35;;;;;;;19.77;16.27;;;24.30;48.50;;;;;;4901301;29;20048;-73
2023/03/03 13:31:23;;;;;;;20.88;16.13;;;23.70;49.10;;;;;;4905123;29;20410;-73
2023/03/03 13:34:00;;;;;;;20.93;16.77;;;24.00;49.30;;;;;;4905552;29;20037;-74
2023/03/03 13:36:43;;;;;;;20.05;15.95;;;24.20;48.60;;;;;;4906021;29;20100;-73
2023/03/03 13:39:20;;;;;;;19.90;15.75;;;24.50;48.60;;;;;;4903939;29;20033;-73
2023/03/03 13:42:12;;;;;;;21.42;16.13;;;24.40;47.70;;;;;;4906143;29;20060;-73
2023/03/03 13:44:45;;;;;;;22.67;16.58;;;24.40;49.00;;;;;;4905643;29;20055;-74
2023/03/03 13:47:22;;;;;;;21.20;15.75;;;24.50;47.60;;;;;;4906174;29;20032;-73
2023/03/03 13:50:04;;;;;;;20.65;16.92;;;24.70;48.20;;;;;;4906117;29;20324;-73
2023/03/03 13:52:45;;;;;;;24.25;17.35;;;25.00;47.10;;;;;;4905469;29;20037;-75
2023/03/03 13:55:37;;;;;;;21.02;16.83;;;24.80;46.80;;;;;;4905926;29;20330;-74
2023/03/03 13:58:14;;;;;;;21.85;16.60;;;24.60;46.70;;;;;;4896241;29;20056;-74
2023/03/03 14:00:55;;;;;;;21.93;16.33;;;24.70;47.20;;;;;;4905476;29;20115;-74
2023/03/03 14:03:42;;;;;;;20.70;16.85;;;25.40;46.30;;;;;;4905899;29;20052;-75
2023/03/03 14:06:16;;;;;;;24.70;17.52;;;25.40;46.00;;;;;;4893437;29;20092;-74
2023/03/03 14:08:53;;;;;;;21.73;17.73;;;25.20;46.40;;;;;;4905551;29;20048;-74
2023/03/03 14:11:24;;;;;;;21.58;17.17;;;24.50;46.70;;;;;;4905841;29;20084;-74
2023/03/03 14:14:14;;;;;;;20.85;15.75;;;24.50;47.50;;;;;;4923494;29;20032;-74
2023/03/03 14:16:46;;;;;;;19.63;16.58;;;25.40;46.90;;;;;;4905201;29;20036;-74
2023/03/03 14:19:50;;;;;;;21.55;16.90;;;26.00;46.70;;;;;;4895132;29;20291;-74
2023/03/03 14:22:24;;;;;;;20.73;17.33;;;26.20;45.50;;;;;;4876232;29;20108;-73
2023/03/03 14:25:05;;;;;;;20.90;17.20;;;25.90;45.20;;;;;;4905517;29;20120;-74
2023/03/03 14:28:12;;;;;;;21.35;17.10;;;25.50;45.60;;;;;;4904382;29;20068;-73
2023/03/03 14:30:42;;;;;;;20.88;16.80;;;25.60;46.20;;;;;;4903178;29;20051;-73
2023/03/03 14:33:08;;;;;;;20.88;17.00;;;25.60;45.20;;;;;;4905293;29;20059;-73
2023/03/03 14:35:37;;;;;;;22.65;17.60;;;26.00;45.30;;;;;;4904455;29;20040;-72
2023/03/03 14:38:15;;;;;;;21.30;17.85;;;26.00;45.70;;;;;;4905436;29;20036;-73
2023/03/03 14:40:44;;;;;;;20.92;17.02;;;25.90;45.50;;;;;;4919329;29;20032;-74
2023/03/03 14:43:34;;;;;;;22.42;16.25;;;26.10;44.80;;;;;;4905005;29;20259;-74
2023/03/03 14:46:36;;;;;;;22.17;17.08;;;26.70;45.50;;;;;;4903207;29;20382;-74
2023/03/03 14:49:14;;;;;;;22.50;18.35;;;26.20;45.90;;;;;;4904961;29;20092;-73
2023/03/03 14:51:47;;;;;;;21.63;17.23;;;25.70;45.30;;;;;;4905442;29;20052;-74
2023/03/03 14:54:25;;;;;;;25.13;18.67;;;26.00;45.00;;;;;;4893205;29;20067;-72
2023/03/03 14:57:17;;;;;;;22.40;18.02;;;25.80;45.60;;;;;;4904067;29;20223;-72
2023/03/03 15:00:09;;;;;;;21.92;17.42;;;25.90;45.80;;;;;;4897901;29;20032;-73
2023/03/03 15:03:18;;;;;;;23.50;18.27;;;25.50;45.60;;;;;;4914210;29;20291;-72
2023/03/03 15:05:49;;;;;;;21.38;18.60;;;25.40;46.00;;;;;;4897121;29;20056;-74
2023/03/03 15:08:22;;;;;;;22.58;17.90;;;26.00;45.10;;;;;;4905414;29;20028;-73
2023/03/03 15:10:50;;;;;;;23.75;18.25;;;26.10;45.10;;;;;;4904705;29;20207;-74
2023/03/03 15:13:19;;;;;;;23.60;17.77;;;26.20;44.70;;;;;;4905802;29;20033;-73
2023/03/03 15:16:00;;;;;;;23.30;18.50;;;26.20;44.50;;;;;;4892339;29;20029;-75
2023/03/03 15:18:28;;;;;;;22.90;18.15;;;25.90;44.80;;;;;;4889080;29;20037;-73
2023/03/03 15:21:12;;;;;;;23.80;17.63;;;25.30;47.20;;;;;;4905533;29;20041;-73
2023/03/03 15:23:57;;;;;;;23.50;18.48;;;25.70;45.70;;;;;;4906893;29;20043;-73
2023/03/03 15:26:34;;;;;;;22.33;18.08;;;25.80;45.60;;;;;;4892268;29;20203;-75
2023/03/03 15:29:06;;;;;;;24.25;18.83;;;25.60;45.20;;;;;;4905402;29;20348;-74
2023/03/03 15:31:35;;;;;;;22.77;17.30;;;24.90;45.40;;;;;;4908405;29;20273;-76
2023/03/03 15:34:22;;;;;;;24.95;19.30;;;24.70;46.20;;;;;;4908886;29;20044;-73
2023/03/03 15:37:06;;;;;;;25.48;19.38;;;24.30;48.10;;;;;;4908529;29;20028;-73
2023/03/03 15:39:47;;;;;;;21.40;17.13;;;23.60;46.50;;;;;;4907938;29;20040;-74
2023/03/03 15:42:21;;;;;;;24.02;19.00;;;23.60;48.50;;;;;;4908335;29;20088;-74
2023/03/03 15:45:11;;;;;;;25.60;19.75;;;23.40;47.40;;;;;;4908363;29;20334;-74
2023/03/03 15:48:08;;;;;;;26.45;19.38;;;23.50;47.20;;;;;;4905187;29;20073;-73
2023/03/03 15:51:27;;;;;;;26.67;19.38;;;23.20;47.60;;;;;;4908127;29;20041;-76
2023/03/03 15:54:30;;;;;;;27.48;19.02;;;23.20;48.30;;;;;;4818241;29;20075;-74
2023/03/03 15:56:57;;;;;;;25.17;18.63;;;23.50;47.80;;;;;;4908175;29;20048;-74
2023/03/03 15:59:43;;;;;;;24.08;18.65;;;23.40;49.60;;;;;;4905653;29;20258;-75
2023/03/03 16:02:33;;;;;;;26.05;18.85;;;22.90;47.80;;;;;;4909568;29;20274;-75
2023/03/03 16:05:22;;;;;;;25.55;18.25;;;22.80;48.90;;;;;;4909330;29;20340;-74
2023/03/03 16:08:03;;;;;;;26.63;18.63;;;22.90;48.80;;;;;;4907942;29;20040;-73
2023/03/03 16:10:45;;;;;;;25.25;18.75;;;22.60;48.00;;;;;;4907226;29;20108;-72
2023/03/03 16:13:38;;;;;;;24.75;18.33;;;22.20;48.40;;;;;;4913846;29;20048;-72
2023/03/03 16:16:27;;;;;;;26.25;18.80;;;22.00;49.60;;;;;;4914335;29;20025;-72
2023/03/03 16:19:14;;;;;;;27.05;19.02;;;21.60;50.80;;;;;;4901685;29;20170;-71
2023/03/03 16:21:58;;;;;;;27.38;19.20;;;21.40;51.20;;;;;;4911350;29;20025;-71
2023/03/03 16:24:58;;;;;;;28.23;19.42;;;20.70;50.70;;;;;;4908537;29;20048;-74
2023/03/03 16:27:34;;;;;;;28.08;18.73;;;19.80;51.70;;;;;;4904164;29;20103;-73
2023/03/03 16:30:12;;;;;;;29.67;19.13;;;19.20;52.70;;;;;;4907225;29;20068;-74
2023/03/03 16:33:03;;;;;;;28.70;19.75;;;18.70;55.30;;;;;;4906426;29;20104;-72
2023/03/03 16:35:38;;;;;;;28.48;20.10;;;18.40;55.70;;;;;;4906432;29;20037;-73
2023/03/03 16:38:21;;;;;;;29.02;19.75;;;17.80;55.90;;;;;;4907003;29;20041;-74
2023/03/03 16:40:55;;;;;;;30.90;19.70;;;16.90;56.50;;;;;;4920440;29;20033;-73
2023/03/03 16:43:35;;;;;;;32.10;19.63;;;15.90;58.50;;;;;;4906955;29;20251;-73
2023/03/03 16:46:21;;;;;;;29.27;18.05;;;15.10;62.20;;;;;;4907048;29;20229;-73
2023/03/03 16:48:59;;;;;;;29.65;18.42;;;14.60;62.50;;;;;;4906936;29;20250;-73
2023/03/03 16:51:52;;;;;;;28.52;18.20;;;14.10;64.60;;;;;;4906463;29;20035;-73
2023/03/03 16:54:26;;;;;;;34.42;18.50;;;13.70;64.40;;;;;;4903914;29;20214;-72
2023/03/03 16:57:10;;;;;;;33.45;20.30;;;13.30;64.30;;;;;;4907130;29;20034;-73
2023/03/03 16:59:51;;;;;;;31.20;18.70;;;12.90;65.60;;;;;;4902175;29;20039;-72
2023/03/03 17:02:39;;;;;;;32.22;18.02;;;12.60;67.80;;;;;;4906407;29;20041;-72
2023/03/03 17:05:12;;;;;;;34.50;19.45;;;12.40;67.80;;;;;;4906680;29;20044;-72
2023/03/03 17:07:43;;;;;;;35.67;20.20;;;12.20;68.00;;;;;;4901261;29;20062;-74
2023/03/03 17:10:24;;;;;;;31.92;19.80;;;11.90;67.40;;;;;;4899174;29;20036;-70
2023/03/03 17:13:05;;;;;;;34.63;20.10;;;11.60;69.50;;;;;;4905375;29;20104;-71
2023/03/03 17:15:52;;;;;;;33.08;18.98;;;11.40;69.60;;;;;;4906381;29;20039;-71
2023/03/03 17:18:36;;;;;;;35.13;19.45;;;11.20;72.60;;;;;;4904600;29;20032;-71
2023/03/03 17:21:09;;;;;;;34.30;19.10;;;11.10;72.30;;;;;;4906228;29;20095;-74
2023/03/03 17:23:51;;;;;;;34.00;19.27;;;11.00;72.80;;;;;;4906215;29;20044;-78
2023/03/03 17:26:48;;;;;;;34.40;18.92;;;10.90;73.00;;;;;;4906563;29;20069;-75
2023/03/03 17:29:33;;;;;;;38.78;20.42;;;10.80;73.50;;;;;;4906349;29;20036;-76
2023/03/03 17:32:34;;;;;;;34.08;18.52;;;10.70;73.00;;;;;;4906312;29;20036;-76
2023/03/03 17:35:21;;;;;;;36.20;19.45;;;10.50;74.20;;;;;;4896127;29;20033;-76
2023/03/03 17:38:04;;;;;;;37.88;20.35;;;10.40;75.80;;;;;;4904845;29;20382;-77
2023/03/03 17:40:42;;;;;;;32.88;18.75;;;10.20;73.70;;;;;;4905216;29;20103;-76
2023/03/03 17:43:49;;;;;;;38.35;19.98;;;10.10;75.70;;;;;;4905900;29;20040;-74
2023/03/03 17:46:34;;;;;;;34.10;18.97;;;10.00;76.10;;;;;;4903477;29;20104;-74
2023/03/03 17:49:25;;;;;;;36.72;19.17;;;9.90;75.60;;;;;;4905636;29;20346;-75
2023/03/03 17:51:58;;;;;;;37.33;20.20;;;9.80;76.00;;;;;;4895154;29;20310;-73
2023/03/03 17:54:32;;;;;;;36.72;19.55;;;9.70;76.00;;;;;;4905870;29;20331;-78
2023/03/03 17:57:13;;;;;;;33.38;19.55;;;9.60;76.80;;;;;;4898276;29;20115;-79
2023/03/03 18:00:02;;;;;;;37.63;20.05;;;9.60;77.50;;;;;;4896106;29;20043;-77
2023/03/03 18:02:41;;;;;;;36.80;20.20;;;9.50;78.10;;;;;;4905265;29;20051;-74
2023/03/03 18:05:25;;;;;;;32.25;19.48;;;9.40;77.20;;;;;;4905605;29;20119;-76
2023/03/03 18:08:07;;;;;;;36.33;18.92;;;9.30;78.70;;;;;;4905215;29;20287;-76
2023/03/03 18:10:56;;;;;;;36.20;19.00;;;9.30;78.80;;;;;;4904837;29;20222;-74
2023/03/03 18:13:37;;;;;;;37.35;19.17;;;9.20;78.20;;;;;;4871706;29;20060;-74
2023/03/03 18:16:10;;;;;;;38.08;19.88;;;9.20;79.80;;;;;;4905468;29;20243;-73
2023/03/03 18:19:14;;;;;;;35.83;19.60;;;9.10;78.60;;;;;;4905237;29;20381;-75
2023/03/03 18:21:57;;;;;;;38.50;19.30;;;9.10;79.90;;;;;;4905003;29;20047;-76
2023/03/03 18:24:48;;;;;;;38.45;20.30;;;9.00;80.00;;;;;;4905686;29;20056;-75
2023/03/03 18:27:23;;;;;;;41.03;19.65;;;9.00;80.30;;;;;;4905903;29;20028;-73
2023/03/03 18:30:07;;;;;;;37.28;19.88;;;8.90;80.90;;;;;;4905234;29;20032;-75
2023/03/03 18:33:12;;;;;;;38.83;20.75;;;8.80;80.90;;;;;;4888517;29;20040;-74
2023/03/03 18:35:44;;;;;;;37.05;20.27;;;8.70;81.20;;;;;;4829013;29;20321;-74
2023/03/03 18:38:16;;;;;;;41.90;21.17;;;8.50;80.90;;;;;;4829879;29;20151;-74
2023/03/03 18:41:10;;;;;;;45.65;23.50;;;8.30;81.90;;;;;;4829009;29;20046;-75
2023/03/03 18:43:43;;;;;;;46.83;25.15;;;8.20;82.40;;;;;;4829374;29;20049;-76
2023/03/03 18:46:19;;;;;;;43.78;22.40;;;8.00;83.20;;;;;;4829677;29;20054;-75
2023/03/03 18:49:07;;;;;;;41.03;21.90;;;7.90;84.20;;;;;;4828669;29;20058;-75
2023/03/03 18:51:38;;;;;;;42.33;22.15;;;7.90;83.90;;;;;;4828938;29;20053;-75
2023/03/03 18:54:15;;;;;;;42.13;21.85;;;7.90;83.40;;;;;;4829367;29;20057;-76
2023/03/03 18:56:43;;;;;;;42.17;22.23;;;7.80;83.80;;;;;;4829413;29;20039;-79
2023/03/03 18:59:09;;;;;;;41.17;21.75;;;7.70;84.30;;;;;;4832981;29;20102;-75
2023/03/03 19:01:41;;;;;;;41.35;21.48;;;7.60;84.90;;;;;;4832727;29;20034;-74
2023/03/03 19:04:15;;;;;;;41.88;22.70;;;7.50;85.10;;;;;;4832888;29;20069;-73